createdAt,value
2022-10-11T00:00:45.259Z,5.30
2022-10-11T00:06:03.795Z,4.80
2022-10-11T00:11:21.026Z,4.27
2022-10-11T00:16:40.930Z,4.20
2022-10-11T00:21:57.352Z,4.90
2022-10-11T00:27:15.174Z,5.10
2022-10-11T00:32:30.850Z,4.53
2022-10-11T00:37:47.345Z,5.00
2022-10-11T00:43:04.660Z,4.60
2022-10-11T00:48:32.957Z,4.33
2022-10-11T00:53:48.982Z,3.67
2022-10-11T00:59:08.571Z,3.43
2022-10-11T01:04:24.772Z,3.90
2022-10-11T01:09:41.360Z,4.87
2022-10-11T01:15:16.460Z,3.57
2022-10-11T01:20:41.621Z,3.10
2022-10-11T01:26:07.397Z,3.17
2022-10-11T01:31:26.615Z,3.50
2022-10-11T01:37:06.332Z,3.13
2022-10-11T01:42:21.876Z,4.00
2022-10-11T01:47:39.189Z,3.20
2022-10-11T01:52:55.136Z,3.47
2022-10-11T01:58:36.419Z,3.67
2022-10-11T02:04:33.950Z,3.00
2022-10-11T02:10:26.366Z,3.43
2022-10-11T02:15:42.559Z,3.13
2022-10-11T02:21:00.864Z,3.13
2022-10-11T02:26:18.158Z,3.70
2022-10-11T02:31:33.891Z,2.73
2022-10-11T02:36:51.858Z,3.20
2022-10-11T02:42:11.942Z,2.93
2022-10-11T02:47:30.486Z,3.00
2022-10-11T02:52:47.392Z,3.60
2022-10-11T02:58:03.431Z,3.30
2022-10-11T03:03:23.023Z,3.67
2022-10-11T03:08:39.801Z,3.13
2022-10-11T03:13:59.493Z,3.00
2022-10-11T03:19:19.141Z,3.07
2022-10-11T03:24:36.071Z,2.77
2022-10-11T03:29:55.896Z,2.90
2022-10-11T03:35:12.525Z,2.93
2022-10-11T03:40:29.119Z,3.13
2022-10-11T03:45:45.769Z,4.57
2022-10-11T03:51:03.551Z,3.83
2022-10-11T03:56:18.958Z,3.80
2022-10-11T04:01:38.098Z,3.37
2022-10-11T04:06:56.378Z,4.03
2022-10-11T04:12:12.536Z,4.50
2022-10-11T04:17:29.739Z,3.70
2022-10-11T04:22:45.340Z,4.23
2022-10-11T04:28:01.950Z,3.73
2022-10-11T04:33:18.739Z,4.10
2022-10-11T04:38:35.148Z,3.83
2022-10-11T04:43:54.784Z,3.87
2022-10-11T04:49:10.018Z,4.13
2022-10-11T04:54:26.754Z,3.90
2022-10-11T04:59:46.682Z,4.50
2022-10-11T05:05:06.927Z,3.97
2022-10-11T05:10:22.872Z,4.20
2022-10-11T05:15:39.677Z,4.20
2022-10-11T05:21:14.242Z,3.90
2022-10-11T05:26:30.752Z,4.50
2022-10-11T05:31:46.989Z,4.30
2022-10-11T05:37:03.722Z,5.40
2022-10-11T05:42:20.251Z,4.50
2022-10-11T05:47:36.812Z,5.30
2022-10-11T05:52:56.068Z,5.70
2022-10-11T05:58:13.510Z,5.93
2022-10-11T06:03:29.884Z,6.67
2022-10-11T06:08:46.531Z,7.37
2022-10-11T06:14:03.119Z,7.07
2022-10-11T06:19:42.542Z,7.70
2022-10-11T06:25:12.569Z,7.23
2022-10-11T06:30:45.708Z,7.00
2022-10-11T06:36:18.370Z,6.90
2022-10-11T06:41:48.801Z,7.53
2022-10-11T06:47:21.703Z,6.40
2022-10-11T06:53:09.264Z,7.53
2022-10-11T06:58:58.107Z,7.33
2022-10-11T07:04:28.087Z,6.23
2022-10-11T07:09:57.494Z,6.30
2022-10-11T07:15:37.994Z,6.77
2022-10-11T07:21:12.148Z,6.10
2022-10-11T07:26:45.313Z,6.10
2022-10-11T07:32:16.277Z,5.70
2022-10-11T07:37:57.596Z,7.10
2022-10-11T07:43:27.654Z,5.47
2022-10-11T07:48:57.082Z,5.40
2022-10-11T07:54:35.643Z,5.00
2022-10-11T08:00:11.928Z,5.20
2022-10-11T08:05:44.878Z,5.43
2022-10-11T08:11:36.574Z,4.53
2022-10-11T08:17:05.834Z,4.73
2022-10-11T08:22:39.389Z,3.53
2022-10-11T08:28:17.425Z,3.93
2022-10-11T08:33:58.772Z,3.70
2022-10-11T08:39:38.872Z,6.00
2022-10-11T08:45:50.135Z,3.83
2022-10-11T08:52:00.011Z,3.17
2022-10-11T08:57:04.055Z,3.40
2022-10-11T09:03:06.827Z,3.67
2022-10-11T09:08:22.166Z,2.70
2022-10-11T09:13:52.456Z,2.73
2022-10-11T09:19:17.458Z,3.30
2022-10-11T09:24:25.734Z,4.57
2022-10-11T09:30:06.267Z,9.37
2022-10-11T09:35:18.774Z,2.63
2022-10-11T09:40:29.567Z,2.73
2022-10-11T09:45:31.224Z,6.03
2022-10-11T09:50:32.915Z,2.67
2022-10-11T09:55:43.506Z,7.30
2022-10-11T10:00:45.160Z,2.63
2022-10-11T10:05:46.895Z,2.60
2022-10-11T10:10:59.571Z,2.40
2022-10-11T10:16:02.648Z,2.63
2022-10-11T10:21:04.774Z,2.40
2022-10-11T10:26:15.139Z,2.90
2022-10-11T10:31:22.311Z,2.83
2022-10-11T10:36:27.726Z,2.93
2022-10-11T10:41:29.428Z,2.57
2022-10-11T10:46:30.936Z,2.93
2022-10-11T10:52:06.707Z,2.90
2022-10-11T10:57:15.401Z,2.80
2022-10-11T11:02:39.665Z,2.50
2022-10-11T11:07:49.384Z,2.43
2022-10-11T11:12:56.931Z,2.40
2022-10-11T11:18:15.009Z,2.90
2022-10-11T11:23:35.629Z,2.40
2022-10-11T11:28:49.873Z,2.33
2022-10-11T11:34:13.754Z,2.50
2022-10-11T11:39:19.173Z,2.60
2022-10-11T11:44:27.273Z,3.20
2022-10-11T11:54:54.314Z,2.23
2022-10-11T12:00:07.688Z,2.00
2022-10-11T12:05:20.956Z,2.40
2022-10-11T12:10:39.825Z,1.90
2022-10-11T12:16:12.369Z,2.43
2022-10-11T12:21:20.644Z,2.33
2022-10-11T12:26:28.269Z,1.90
2022-10-11T12:31:34.625Z,2.73
2022-10-11T12:36:37.362Z,2.23
2022-10-11T12:41:53.524Z,2.70
2022-10-11T12:46:55.037Z,2.50
2022-10-11T12:52:03.859Z,2.43
2022-10-11T12:57:11.839Z,2.70
2022-10-11T13:02:29.848Z,2.23
2022-10-11T13:07:31.461Z,2.77
2022-10-11T13:12:37.566Z,3.37
2022-10-11T13:17:39.470Z,2.50
2022-10-11T13:22:41.281Z,2.50
2022-10-11T13:27:42.922Z,2.40
2022-10-11T13:32:44.547Z,2.50
2022-10-11T13:37:46.905Z,2.50
2022-10-11T13:42:49.285Z,5.13
2022-10-11T13:47:51.505Z,3.03
2022-10-11T13:53:04.718Z,2.83
2022-10-11T13:58:14.967Z,2.97
2022-10-11T14:03:19.980Z,2.60
2022-10-11T14:08:30.552Z,2.70
2022-10-11T14:13:34.082Z,2.10
2022-10-11T14:18:49.752Z,2.90
2022-10-11T14:24:11.972Z,7.37
2022-10-11T14:29:31.219Z,2.50
2022-10-11T14:34:33.026Z,1.90
2022-10-11T14:39:34.753Z,2.00
2022-10-11T14:44:36.469Z,2.10
2022-10-11T14:49:38.131Z,2.00
2022-10-11T14:54:39.763Z,1.93
2022-10-11T14:59:43.182Z,2.00
2022-10-11T15:04:44.831Z,2.67
2022-10-11T15:09:46.530Z,3.90
2022-10-11T15:14:48.191Z,2.60
2022-10-11T15:19:50.730Z,3.60
2022-10-11T15:24:52.367Z,3.07
2022-10-11T15:29:54.011Z,2.10
2022-10-11T15:34:55.632Z,2.60
2022-10-11T15:39:57.281Z,2.37
2022-10-11T15:44:58.974Z,2.27
2022-10-11T15:50:00.698Z,13.97
2022-10-11T15:55:02.379Z,2.90
2022-10-11T16:00:04.670Z,2.50
2022-10-11T16:05:13.465Z,2.87
2022-10-11T16:10:15.268Z,2.37
2022-10-11T16:15:17.070Z,3.00
2022-10-11T16:20:22.248Z,3.73
2022-10-11T16:25:24.025Z,4.27
2022-10-11T16:30:26.000Z,4.50
2022-10-11T16:35:32.253Z,7.80
2022-10-11T16:40:35.919Z,5.80
2022-10-11T16:45:37.869Z,6.20
2022-10-11T16:50:39.927Z,17.37
2022-10-11T16:55:41.680Z,23.13
2022-10-11T17:00:43.447Z,13.30
2022-10-11T17:05:45.162Z,9.90
2022-10-11T17:10:52.595Z,7.80
2022-10-11T17:15:54.239Z,6.87
2022-10-11T17:21:07.009Z,9.10
2022-10-11T17:26:11.547Z,8.73
2022-10-11T17:31:13.466Z,8.30
2022-10-11T17:36:24.168Z,7.73
2022-10-11T17:41:30.878Z,10.70
2022-10-11T17:46:33.791Z,16.30
2022-10-11T17:51:35.920Z,16.30
2022-10-11T17:56:38.281Z,16.57
2022-10-11T18:01:40.136Z,15.50
2022-10-11T18:06:43.467Z,10.80
2022-10-11T18:11:45.143Z,11.70
2022-10-11T18:16:46.898Z,10.47
2022-10-11T18:21:48.520Z,12.80
2022-10-11T18:26:50.195Z,16.97
2022-10-11T18:31:52.001Z,30.03
2022-10-11T18:36:53.698Z,30.67
2022-10-11T18:41:55.459Z,28.17
2022-10-11T18:46:58.463Z,34.37
2022-10-11T18:52:00.142Z,24.97
2022-10-11T18:57:01.803Z,23.37
2022-10-11T19:02:04.827Z,32.63
2022-10-11T19:07:06.539Z,35.30
2022-10-11T19:12:08.273Z,27.70
2022-10-11T19:17:12.222Z,18.13
2022-10-11T19:22:13.890Z,13.20
2022-10-11T19:27:15.546Z,16.20
2022-10-11T19:32:17.213Z,16.27
2022-10-11T19:37:18.908Z,13.90
2022-10-11T19:42:20.571Z,16.80
2022-10-11T19:47:22.303Z,12.60
2022-10-11T19:52:23.979Z,11.27
2022-10-11T19:57:25.611Z,6.13
2022-10-11T20:02:27.260Z,10.57
2022-10-11T20:07:29.049Z,10.33
2022-10-11T20:12:31.160Z,9.90
2022-10-11T20:17:48.294Z,11.37
2022-10-11T20:22:49.953Z,12.83
2022-10-11T20:27:51.631Z,12.87
2022-10-11T20:32:53.315Z,13.70
2022-10-11T20:37:54.931Z,13.53
2022-10-11T20:42:56.566Z,14.20
2022-10-11T20:47:59.135Z,14.47
2022-10-11T20:53:00.769Z,12.87
2022-10-11T20:58:02.414Z,14.00
2022-10-11T21:03:04.078Z,11.57
2022-10-11T21:08:05.715Z,9.70
2022-10-11T21:13:07.413Z,10.30
2022-10-11T21:18:09.076Z,6.50
2022-10-11T21:23:11.072Z,5.97
2022-10-11T21:28:12.935Z,7.10
2022-10-11T21:33:14.628Z,7.40
2022-10-11T21:38:16.275Z,8.90
2022-10-11T21:43:17.936Z,7.53
2022-10-11T21:48:19.581Z,5.63
2022-10-11T21:53:21.307Z,6.90
2022-10-11T21:58:22.946Z,10.77
2022-10-11T22:03:25.350Z,12.07
2022-10-11T22:08:26.997Z,11.67
2022-10-11T22:13:29.411Z,10.40
2022-10-11T22:18:33.653Z,10.17
2022-10-11T22:23:35.603Z,6.93
2022-10-11T22:28:37.275Z,6.07
2022-10-11T22:33:39.156Z,6.77
2022-10-11T22:38:41.954Z,5.10
2022-10-11T22:43:43.584Z,4.63
2022-10-11T22:48:45.223Z,5.33
2022-10-11T22:53:46.923Z,5.23
2022-10-11T22:58:48.589Z,4.90
2022-10-11T23:03:50.799Z,5.30
2022-10-11T23:08:52.516Z,5.20
2022-10-11T23:13:54.162Z,4.97
2022-10-11T23:18:55.881Z,5.20
2022-10-11T23:23:57.502Z,4.97
2022-10-11T23:28:59.130Z,5.03
2022-10-11T23:34:00.779Z,4.87
2022-10-11T23:39:02.411Z,4.97
2022-10-11T23:44:04.080Z,4.80
2022-10-11T23:49:05.705Z,5.07
2022-10-11T23:54:07.407Z,5.23
2022-10-11T23:59:09.089Z,4.90
